Time;durP1;ratioP1;P1;durP2;ratioP2;P2;SDS_P1;SDS_P2;PMS_P1;PMS_P2;Temp;Humidity;BMP_temperature;BMP_pressure;BME280_temperature;BME280_humidity;BME280_pressure;Samples;Min_cycle;Max_cycle;Signal;HPM_P1;HPM_P2
2022/09/03 00:00:25;;;;;;;1.33;1.10;;;22.90;50.90;;;;;;5054538;28;20516;-67
2022/09/03 00:03:05;;;;;;;1.30;1.20;;;22.90;50.90;;;;;;5075395;28;20661;-66
2022/09/03 00:05:47;;;;;;;1.20;1.10;;;22.90;51.00;;;;;;5054078;28;20625;-66
2022/09/03 00:08:35;;;;;;;1.40;1.27;;;22.90;50.90;;;;;;5057101;28;20684;-66
2022/09/03 00:11:06;;;;;;;1.38;1.00;;;22.90;50.90;;;;;;5041522;28;20194;-66
2022/09/03 00:13:37;;;;;;;1.38;1.10;;;22.90;51.00;;;;;;5057605;28;20541;-67
2022/09/03 00:16:08;;;;;;;1.55;1.23;;;22.90;50.90;;;;;;5056963;28;20268;-67
2022/09/03 00:18:34;;;;;;;1.45;1.05;;;22.80;50.90;;;;;;5058436;28;20175;-66
2022/09/03 00:21:07;;;;;;;2.83;1.23;;;22.90;51.00;;;;;;5057383;28;20202;-66
2022/09/03 00:23:34;;;;;;;1.30;1.20;;;22.90;51.00;;;;;;5056666;28;20171;-67
2022/09/03 00:26:12;;;;;;;1.20;1.10;;;22.90;50.90;;;;;;5057733;28;20163;-66
2022/09/03 00:29:08;;;;;;;1.23;1.13;;;22.90;51.00;;;;;;5070915;28;20650;-66
2022/09/03 00:31:44;;;;;;;1.30;1.20;;;22.80;51.00;;;;;;5059299;28;20171;-66
2022/09/03 00:34:27;;;;;;;1.33;1.20;;;22.80;51.00;;;;;;5057429;28;20198;-66
2022/09/03 00:36:53;;;;;;;1.13;1.02;;;22.80;51.00;;;;;;5057068;28;20167;-65
2022/09/03 00:39:20;;;;;;;1.23;1.10;;;22.80;51.00;;;;;;5075158;28;20710;-66
2022/09/03 00:42:12;;;;;;;1.20;1.20;;;22.80;51.00;;;;;;5074795;28;20244;-66
2022/09/03 00:44:47;;;;;;;1.50;1.27;;;22.80;51.00;;;;;;5073512;28;20171;-66
2022/09/03 00:47:32;;;;;;;1.20;1.10;;;22.80;51.00;;;;;;5072253;28;20589;-67
2022/09/03 00:50:20;;;;;;;1.20;1.10;;;22.80;51.10;;;;;;5074071;28;20232;-66
2022/09/03 00:52:58;;;;;;;1.30;1.23;;;22.80;51.10;;;;;;5055789;28;20175;-66
2022/09/03 00:55:26;;;;;;;1.27;1.17;;;22.80;51.10;;;;;;5071190;28;20154;-67
2022/09/03 00:58:03;;;;;;;1.20;1.10;;;22.80;51.10;;;;;;5056156;28;20248;-66
2022/09/03 01:00:29;;;;;;;1.48;0.90;;;22.80;51.10;;;;;;5052998;28;20648;-67
2022/09/03 01:03:10;;;;;;;0.90;0.90;;;22.80;51.10;;;;;;5056610;28;20205;-66
2022/09/03 01:06:02;;;;;;;1.20;1.08;;;22.80;51.10;;;;;;5055888;28;20537;-67
2022/09/03 01:08:31;;;;;;;1.20;1.10;;;22.80;51.10;;;;;;5037366;28;20170;-66
2022/09/03 01:11:19;;;;;;;1.35;0.98;;;22.80;51.10;;;;;;5055817;28;20195;-65
2022/09/03 01:13:53;;;;;;;1.63;1.20;;;22.80;51.10;;;;;;5043083;28;20227;-66
2022/09/03 01:16:51;;;;;;;1.20;1.10;;;22.70;51.10;;;;;;5057521;28;20174;-66
2022/09/03 01:19:37;;;;;;;0.98;0.93;;;22.80;51.20;;;;;;5069442;28;20163;-66
2022/09/03 01:22:23;;;;;;;1.30;1.20;;;22.80;51.20;;;;;;5050356;28;20676;-66
2022/09/03 01:24:58;;;;;;;0.98;0.98;;;22.80;51.10;;;;;;5069194;28;20230;-65
2022/09/03 01:27:48;;;;;;;0.88;0.88;;;22.80;51.20;;;;;;5052323;28;20166;-66
2022/09/03 01:30:17;;;;;;;1.67;1.50;;;22.80;51.20;;;;;;5059116;28;20175;-66
2022/09/03 01:32:53;;;;;;;1.90;1.20;;;22.70;51.10;;;;;;5073791;28;20180;-65
2022/09/03 01:35:23;;;;;;;1.20;1.10;;;22.80;51.20;;;;;;5050902;28;20170;-66
2022/09/03 01:38:04;;;;;;;0.98;0.93;;;22.70;51.20;;;;;;5073939;28;20189;-65
2022/09/03 01:42:12;;;;;;;1.30;1.20;;;22.70;51.10;;;;;;5055384;28;20182;-66
2022/09/03 01:43:56;;;;;;;1.10;1.00;;;22.70;51.20;;;;;;5058804;28;20254;-66
2022/09/03 01:46:26;;;;;;;1.00;0.98;;;22.70;51.20;;;;;;5056595;28;20170;-67
2022/09/03 01:49:21;;;;;;;1.45;1.35;;;22.70;51.20;;;;;;5055818;28;20653;-66
2022/09/03 01:51:51;;;;;;;1.30;1.20;;;22.70;51.20;;;;;;5056503;28;20170;-66
2022/09/03 01:54:27;;;;;;;1.83;1.00;;;22.70;51.10;;;;;;5055249;28;20174;-67
2022/09/03 01:57:33;;;;;;;1.00;0.93;;;22.70;51.10;;;;;;5056447;28;20170;-67
2022/09/03 02:00:03;;;;;;;1.00;1.00;;;22.70;51.20;;;;;;5040095;28;20174;-66
2022/09/03 02:02:29;;;;;;;1.52;1.20;;;22.70;51.20;;;;;;5056396;28;20302;-67
2022/09/03 02:05:08;;;;;;;1.20;1.10;;;22.70;51.20;;;;;;5073796;28;20170;-66
2022/09/03 02:07:47;;;;;;;1.70;1.00;;;22.70;51.20;;;;;;5061290;28;20182;-66
2022/09/03 02:10:30;;;;;;;1.10;1.10;;;22.70;51.20;;;;;;5065334;28;20247;-66
2022/09/03 02:13:00;;;;;;;1.02;1.02;;;22.70;51.20;;;;;;5055805;28;20174;-67
2022/09/03 02:15:26;;;;;;;1.25;1.15;;;22.70;51.20;;;;;;5072845;28;20173;-66
2022/09/03 02:17:54;;;;;;;1.13;1.13;;;22.70;51.20;;;;;;5055295;28;20175;-66
2022/09/03 02:20:20;;;;;;;1.25;1.15;;;22.70;51.20;;;;;;5073200;28;20576;-66
2022/09/03 02:22:47;;;;;;;1.00;0.93;;;22.70;51.30;;;;;;5072270;28;20289;-66
2022/09/03 02:25:12;;;;;;;1.23;1.13;;;22.70;51.20;;;;;;5073066;28;20217;-66
2022/09/03 02:27:38;;;;;;;1.05;0.95;;;22.60;51.20;;;;;;5073261;28;20175;-66
2022/09/03 02:30:04;;;;;;;1.00;1.00;;;22.70;51.30;;;;;;5054406;28;20216;-66
2022/09/03 02:32:29;;;;;;;1.25;0.90;;;22.70;51.30;;;;;;5072872;28;20180;-67
2022/09/03 02:34:55;;;;;;;0.98;0.98;;;22.70;51.30;;;;;;5072965;28;20174;-66
2022/09/03 02:37:21;;;;;;;1.20;0.85;;;22.70;51.90;;;;;;5072323;28;20690;-66
2022/09/03 02:39:46;;;;;;;1.55;0.90;;;22.60;51.20;;;;;;5072756;28;20162;-66
2022/09/03 02:42:12;;;;;;;1.00;0.80;;;22.60;51.20;;;;;;5072243;28;20202;-66
2022/09/03 02:44:40;;;;;;;1.10;0.93;;;22.60;51.30;;;;;;5072863;28;20175;-67
2022/09/03 02:47:07;;;;;;;1.30;1.20;;;22.60;51.20;;;;;;5054994;28;20167;-67
2022/09/03 02:49:33;;;;;;;2.25;1.00;;;22.60;51.30;;;;;;5071919;28;20519;-67
2022/09/03 02:52:01;;;;;;;2.00;1.05;;;22.70;51.30;;;;;;5072380;28;20178;-67
2022/09/03 02:54:27;;;;;;;1.08;0.98;;;22.60;51.30;;;;;;5072556;28;20652;-67
2022/09/03 02:56:52;;;;;;;1.27;0.98;;;22.60;51.30;;;;;;5071964;28;20166;-67
2022/09/03 02:59:18;;;;;;;1.00;1.00;;;22.60;51.30;;;;;;5072887;28;20651;-67
2022/09/03 03:01:43;;;;;;;1.30;1.20;;;22.60;51.20;;;;;;5072096;28;20656;-66
2022/09/03 03:04:09;;;;;;;1.52;1.00;;;22.60;51.20;;;;;;5072108;28;20493;-67
2022/09/03 03:06:35;;;;;;;1.20;1.10;;;22.60;51.30;;;;;;5071853;28;20243;-66
2022/09/03 03:09:03;;;;;;;1.23;1.13;;;22.60;52.00;;;;;;5072547;28;20612;-66
2022/09/03 03:11:29;;;;;;;1.08;0.98;;;22.60;51.30;;;;;;5071983;28;20208;-66
2022/09/03 03:13:54;;;;;;;1.48;1.20;;;22.60;51.30;;;;;;5072588;28;20181;-66
2022/09/03 03:16:20;;;;;;;0.90;0.90;;;22.60;51.30;;;;;;5072266;28;20171;-66
2022/09/03 03:18:45;;;;;;;2.15;1.25;;;22.60;51.30;;;;;;5071688;28;20258;-66
2022/09/03 03:21:13;;;;;;;1.17;1.08;;;22.60;51.30;;;;;;5072470;28;20202;-66
2022/09/03 03:23:39;;;;;;;1.20;1.10;;;22.60;51.40;;;;;;5072254;28;20213;-65
2022/09/03 03:26:07;;;;;;;1.20;1.00;;;22.60;51.40;;;;;;5071368;28;20159;-66
2022/09/03 03:28:33;;;;;;;1.27;1.17;;;22.60;51.30;;;;;;5072532;28;20236;-66
2022/09/03 03:31:08;;;;;;;1.00;0.90;;;22.60;51.40;;;;;;5072090;28;20174;-66
2022/09/03 03:33:34;;;;;;;1.17;1.08;;;22.60;51.30;;;;;;5068543;28;20204;-66
2022/09/03 03:36:18;;;;;;;0.80;0.80;;;22.60;51.30;;;;;;5072016;28;20637;-66
2022/09/03 03:38:43;;;;;;;1.35;1.10;;;22.60;51.30;;;;;;5071477;28;20231;-66
2022/09/03 03:41:10;;;;;;;1.23;1.13;;;22.60;51.50;;;;;;5072087;28;20218;-67
2022/09/03 03:43:36;;;;;;;1.20;1.10;;;22.50;51.30;;;;;;5072243;28;20181;-67
2022/09/03 03:46:01;;;;;;;0.80;0.80;;;22.50;51.20;;;;;;5071377;28;20170;-67
2022/09/03 03:48:27;;;;;;;1.05;1.00;;;22.50;51.30;;;;;;5072177;28;20171;-67
2022/09/03 03:50:53;;;;;;;1.30;1.05;;;22.60;51.30;;;;;;5071977;28;20519;-67
2022/09/03 03:53:18;;;;;;;0.90;0.90;;;22.50;51.30;;;;;;5071407;28;20254;-67
2022/09/03 03:55:53;;;;;;;0.88;0.88;;;22.50;51.30;;;;;;5071993;28;20639;-66
2022/09/03 03:58:19;;;;;;;1.27;0.90;;;22.50;51.30;;;;;;5068944;28;20163;-67
2022/09/03 04:00:48;;;;;;;0.80;0.80;;;22.50;51.20;;;;;;5071097;28;20181;-67
2022/09/03 04:03:13;;;;;;;1.00;1.00;;;22.50;51.30;;;;;;5072223;28;20186;-67
2022/09/03 04:05:39;;;;;;;1.45;1.10;;;22.50;51.30;;;;;;5072124;28;20163;-65
2022/09/03 04:08:05;;;;;;;0.80;0.80;;;22.50;51.30;;;;;;5071222;28;20170;-66
2022/09/03 04:10:30;;;;;;;1.10;0.85;;;22.50;51.30;;;;;;5071983;28;20194;-66
2022/09/03 04:12:56;;;;;;;1.23;1.10;;;22.50;51.20;;;;;;5072004;28;20240;-67
2022/09/03 04:15:21;;;;;;;1.10;1.10;;;22.50;51.30;;;;;;5070965;28;20281;-67
2022/09/03 04:17:47;;;;;;;1.10;0.75;;;22.50;51.30;;;;;;5071581;28;20712;-66
2022/09/03 04:20:12;;;;;;;1.10;1.00;;;22.50;51.30;;;;;;5075082;28;20253;-66
2022/09/03 04:22:38;;;;;;;1.02;0.93;;;22.50;51.40;;;;;;5074788;28;20210;-66
2022/09/03 04:25:04;;;;;;;1.20;1.10;;;22.50;51.30;;;;;;5075039;28;20221;-66
2022/09/03 04:27:30;;;;;;;1.02;0.98;;;22.50;51.40;;;;;;5075412;28;20190;-66
2022/09/03 04:29:55;;;;;;;1.23;1.13;;;22.50;51.40;;;;;;5074333;28;20170;-65
2022/09/03 04:35:05;;;;;;;2.20;0.93;;;22.50;51.40;;;;;;5071057;28;20196;-67
2022/09/03 04:37:31;;;;;;;0.95;0.95;;;22.50;51.40;;;;;;5075177;28;20602;-66
2022/09/03 04:39:57;;;;;;;0.80;0.80;;;22.50;51.30;;;;;;5075167;28;20249;-66
2022/09/03 04:42:23;;;;;;;1.33;1.10;;;22.50;51.30;;;;;;5074500;28;20252;-67
2022/09/03 04:44:48;;;;;;;0.80;0.80;;;22.50;51.30;;;;;;5075161;28;20649;-65
2022/09/03 04:47:15;;;;;;;1.58;0.90;;;22.50;51.30;;;;;;5075187;28;20179;-65
2022/09/03 04:49:40;;;;;;;0.95;0.93;;;22.50;51.30;;;;;;5074292;28;20198;-65
2022/09/03 04:52:05;;;;;;;1.20;1.10;;;22.40;51.30;;;;;;5074754;28;20213;-65
2022/09/03 04:54:31;;;;;;;0.90;0.90;;;22.40;51.20;;;;;;5074721;28;20258;-66
2022/09/03 04:56:56;;;;;;;0.90;0.90;;;22.40;51.30;;;;;;5074243;28;20166;-65
2022/09/03 04:59:22;;;;;;;1.30;0.95;;;22.40;51.30;;;;;;5074766;28;20525;-65
2022/09/03 05:01:47;;;;;;;0.85;0.82;;;22.40;51.20;;;;;;5074397;28;20686;-64
2022/09/03 05:04:13;;;;;;;1.33;1.00;;;22.40;51.30;;;;;;5074162;28;20219;-64
2022/09/03 05:06:39;;;;;;;0.90;0.90;;;22.40;51.30;;;;;;5074539;28;20219;-64
2022/09/03 05:09:04;;;;;;;0.93;0.93;;;22.40;51.30;;;;;;5074336;28;20209;-64
2022/09/03 05:11:30;;;;;;;0.93;0.93;;;22.40;51.30;;;;;;5073987;28;20175;-65
2022/09/03 05:13:57;;;;;;;0.90;0.90;;;22.40;51.40;;;;;;5074486;28;20189;-64
2022/09/03 05:16:22;;;;;;;1.00;1.00;;;22.40;51.30;;;;;;5074673;28;20173;-65
2022/09/03 05:18:51;;;;;;;0.90;0.90;;;22.40;51.30;;;;;;5073677;28;20186;-64
2022/09/03 05:21:17;;;;;;;1.25;1.15;;;22.40;51.40;;;;;;5074318;28;20208;-64
2022/09/03 05:23:44;;;;;;;0.95;0.95;;;22.40;51.30;;;;;;5074050;28;20203;-64
2022/09/03 05:26:12;;;;;;;1.30;0.90;;;22.40;51.30;;;;;;5069694;28;20178;-64
2022/09/03 05:28:38;;;;;;;0.90;0.90;;;22.40;51.30;;;;;;5074321;28;20174;-64
2022/09/03 05:31:05;;;;;;;1.10;0.80;;;22.40;51.30;;;;;;5072988;28;20175;-64
2022/09/03 05:33:34;;;;;;;0.90;0.90;;;22.40;51.40;;;;;;5074310;28;20261;-64
2022/09/03 05:36:04;;;;;;;1.52;1.05;;;22.40;51.40;;;;;;5073824;28;20585;-64
2022/09/03 05:38:29;;;;;;;0.90;0.90;;;22.40;51.40;;;;;;5073309;28;20189;-63
2022/09/03 05:40:59;;;;;;;1.45;1.20;;;22.40;51.40;;;;;;5073953;28;20167;-64
2022/09/03 05:43:25;;;;;;;1.00;0.90;;;22.40;51.40;;;;;;5074261;28;20175;-64
2022/09/03 05:45:50;;;;;;;1.98;0.90;;;22.40;51.40;;;;;;5073225;28;20171;-64
2022/09/03 05:48:16;;;;;;;0.98;0.98;;;22.40;51.40;;;;;;5073815;28;20216;-64
2022/09/03 05:50:41;;;;;;;0.80;0.80;;;22.40;51.30;;;;;;5073632;28;20178;-63
2022/09/03 05:53:07;;;;;;;1.13;1.02;;;22.40;51.40;;;;;;5072848;28;20532;-64
2022/09/03 05:55:32;;;;;;;0.90;0.90;;;22.40;51.40;;;;;;5073618;28;20170;-64
2022/09/03 05:57:58;;;;;;;0.80;0.80;;;22.30;51.40;;;;;;5073390;28;20632;-64
2022/09/03 06:00:24;;;;;;;1.45;1.10;;;22.40;51.40;;;;;;5072957;28;20174;-65
2022/09/03 06:02:51;;;;;;;0.80;0.80;;;22.40;51.40;;;;;;5073237;28;20503;-64
2022/09/03 06:05:17;;;;;;;1.17;1.00;;;22.40;51.40;;;;;;5073701;28;20174;-64
2022/09/03 06:07:43;;;;;;;1.02;1.00;;;22.40;51.40;;;;;;5072890;28;20175;-63
2022/09/03 06:10:10;;;;;;;0.90;0.90;;;22.40;51.40;;;;;;5073540;28;20178;-64
2022/09/03 06:12:36;;;;;;;0.85;0.75;;;22.40;51.40;;;;;;5073495;28;20189;-64
2022/09/03 06:15:01;;;;;;;0.80;0.80;;;22.40;51.40;;;;;;5072226;28;20507;-64
2022/09/03 06:17:27;;;;;;;1.42;0.80;;;22.40;51.30;;;;;;5073097;28;20179;-64
2022/09/03 06:19:52;;;;;;;1.17;0.80;;;22.40;51.30;;;;;;5072805;28;20518;-63
2022/09/03 06:22:18;;;;;;;0.80;0.80;;;22.40;51.40;;;;;;5072519;28;20206;-64
2022/09/03 06:24:43;;;;;;;1.13;0.82;;;22.40;51.40;;;;;;5072835;28;20217;-64
2022/09/03 06:27:09;;;;;;;0.82;0.82;;;22.40;51.30;;;;;;5073212;28;20167;-64
2022/09/03 06:29:34;;;;;;;1.75;0.80;;;22.40;51.20;;;;;;5072392;28;20566;-64
2022/09/03 06:32:03;;;;;;;0.98;0.90;;;22.40;51.30;;;;;;5072757;28;20206;-63
2022/09/03 06:34:28;;;;;;;1.08;0.80;;;22.50;51.80;;;;;;5072013;28;20182;-64
2022/09/03 06:36:54;;;;;;;1.00;1.00;;;22.50;51.20;;;;;;5072883;28;20269;-64
2022/09/03 06:39:19;;;;;;;1.33;0.82;;;22.40;51.10;;;;;;5073041;28;20169;-64
2022/09/03 06:41:50;;;;;;;0.98;0.98;;;22.40;51.10;;;;;;5070862;28;20607;-64
2022/09/03 06:44:16;;;;;;;0.70;0.70;;;22.40;51.10;;;;;;5072864;28;20167;-65
2022/09/03 06:46:41;;;;;;;0.90;0.73;;;22.50;51.20;;;;;;5072805;28;20189;-64
2022/09/03 06:49:07;;;;;;;0.80;0.80;;;22.50;51.20;;;;;;5071758;28;20171;-65
2022/09/03 06:51:33;;;;;;;0.80;0.80;;;22.50;51.20;;;;;;5072746;28;20171;-64
2022/09/03 06:54:00;;;;;;;1.13;1.00;;;22.50;51.10;;;;;;5072646;28;20178;-64
2022/09/03 06:56:26;;;;;;;1.20;1.08;;;22.50;51.10;;;;;;5072113;28;20185;-65
2022/09/03 06:58:53;;;;;;;0.80;0.80;;;22.50;51.20;;;;;;5072448;28;20201;-64
2022/09/03 07:01:19;;;;;;;0.90;0.90;;;22.60;51.20;;;;;;5072318;28;20206;-65
2022/09/03 07:03:46;;;;;;;1.25;1.10;;;22.50;51.10;;;;;;5071703;28;20170;-63
2022/09/03 07:06:16;;;;;;;0.80;0.80;;;22.50;51.10;;;;;;5072663;28;20171;-64
2022/09/03 07:08:42;;;;;;;0.80;0.80;;;22.50;51.10;;;;;;5072450;28;20190;-63
2022/09/03 07:11:10;;;;;;;1.00;0.90;;;22.50;51.00;;;;;;5071428;28;20171;-64
2022/09/03 07:13:40;;;;;;;1.02;0.93;;;22.60;51.10;;;;;;5072586;28;20196;-64
2022/09/03 07:16:07;;;;;;;0.88;0.88;;;22.60;51.00;;;;;;5072200;28;20171;-64
2022/09/03 07:18:32;;;;;;;1.00;0.90;;;22.60;50.90;;;;;;5071771;28;20179;-64
2022/09/03 07:20:59;;;;;;;1.08;1.02;;;22.60;50.90;;;;;;5072103;28;20176;-64
2022/09/03 07:23:25;;;;;;;1.27;0.55;;;22.60;50.80;;;;;;5072070;28;20174;-64
2022/09/03 07:26:00;;;;;;;1.90;0.90;;;22.70;50.70;;;;;;5071803;28;20575;-63
2022/09/03 07:28:26;;;;;;;0.98;0.80;;;22.70;50.70;;;;;;5072246;28;20174;-64
2022/09/03 07:30:52;;;;;;;0.90;0.90;;;22.70;50.70;;;;;;5071265;28;20529;-64
2022/09/03 07:33:18;;;;;;;0.82;0.82;;;22.70;50.60;;;;;;5072424;28;20193;-64
2022/09/03 07:35:44;;;;;;;1.83;0.82;;;22.70;50.50;;;;;;5072136;28;20633;-63
2022/09/03 07:38:10;;;;;;;0.85;0.82;;;22.80;50.50;;;;;;5071574;28;20177;-64
2022/09/03 07:40:38;;;;;;;1.20;0.95;;;22.80;50.40;;;;;;5072183;28;20182;-63
2022/09/03 07:43:04;;;;;;;1.33;0.95;;;22.80;50.30;;;;;;5071718;28;20233;-64
2022/09/03 07:45:31;;;;;;;0.85;0.70;;;22.80;50.30;;;;;;5071560;28;20620;-66
2022/09/03 07:47:57;;;;;;;1.20;1.10;;;22.80;50.30;;;;;;5072204;28;20223;-64
2022/09/03 07:50:23;;;;;;;1.05;0.75;;;22.80;50.20;;;;;;5072119;28;20166;-65
2022/09/03 07:52:48;;;;;;;0.80;0.80;;;22.80;50.20;;;;;;5072156;28;20243;-64
2022/09/03 07:55:14;;;;;;;0.98;0.70;;;22.80;50.30;;;;;;5076026;28;20205;-65
2022/09/03 07:57:39;;;;;;;0.88;0.85;;;22.90;50.30;;;;;;5076059;28;20167;-65
2022/09/03 08:00:07;;;;;;;1.40;0.80;;;22.90;50.30;;;;;;5075082;28;20163;-65
2022/09/03 08:02:33;;;;;;;0.80;0.80;;;22.90;50.30;;;;;;5075920;28;20218;-65
2022/09/03 08:04:59;;;;;;;1.10;0.80;;;22.90;50.30;;;;;;5075630;28;20181;-64
2022/09/03 08:07:25;;;;;;;1.10;0.82;;;22.90;50.30;;;;;;5074936;28;20178;-64
2022/09/03 08:09:50;;;;;;;0.70;0.70;;;22.90;50.30;;;;;;5075455;28;20170;-64
2022/09/03 08:12:16;;;;;;;0.70;0.70;;;22.90;50.30;;;;;;5075582;28;20301;-64
2022/09/03 08:14:41;;;;;;;0.73;0.73;;;23.00;50.30;;;;;;5075031;28;20220;-65
2022/09/03 08:17:07;;;;;;;0.80;0.80;;;23.00;50.30;;;;;;5075161;28;20216;-64
2022/09/03 08:19:33;;;;;;;0.85;0.85;;;23.00;50.30;;;;;;5075425;28;20173;-65
2022/09/03 08:21:59;;;;;;;1.13;0.90;;;23.00;50.30;;;;;;5074415;28;20546;-65
2022/09/03 08:24:25;;;;;;;1.67;0.90;;;23.00;50.30;;;;;;5075369;28;20237;-64
2022/09/03 08:26:50;;;;;;;2.10;0.98;;;23.00;50.30;;;;;;5074704;28;20174;-64
2022/09/03 08:29:16;;;;;;;1.13;0.70;;;23.00;50.30;;;;;;5075561;28;20166;-64
2022/09/03 08:31:42;;;;;;;1.75;0.73;;;23.10;50.40;;;;;;5075347;28;20221;-64
2022/09/03 08:34:10;;;;;;;0.68;0.68;;;23.10;50.30;;;;;;5074492;28;20174;-64
2022/09/03 08:36:37;;;;;;;0.73;0.68;;;23.10;50.30;;;;;;5075379;28;20181;-64
2022/09/03 08:39:06;;;;;;;0.68;0.68;;;23.10;50.40;;;;;;5075205;28;20175;-64
2022/09/03 08:41:56;;;;;;;0.77;0.75;;;23.10;50.40;;;;;;5074422;28;20736;-64
2022/09/03 08:44:54;;;;;;;0.80;0.80;;;23.20;50.40;;;;;;5054865;28;20224;-63
2022/09/03 08:47:42;;;;;;;0.80;0.80;;;23.20;50.40;;;;;;5056749;28;20166;-65
2022/09/03 08:50:41;;;;;;;0.90;0.90;;;23.20;50.40;;;;;;5073585;28;20223;-65
2022/09/03 08:53:34;;;;;;;0.70;0.70;;;23.20;50.40;;;;;;5073429;28;20189;-64
2022/09/03 08:56:20;;;;;;;1.02;0.70;;;23.20;50.40;;;;;;5042441;28;20174;-65
2022/09/03 08:58:46;;;;;;;0.73;0.68;;;23.20;50.40;;;;;;5056894;28;20225;-64
2022/09/03 09:01:34;;;;;;;1.10;0.70;;;23.30;50.40;;;;;;5074640;28;20625;-64
2022/09/03 09:04:18;;;;;;;0.80;0.80;;;23.30;50.50;;;;;;5053615;28;20655;-64
2022/09/03 09:07:04;;;;;;;1.38;1.10;;;23.30;50.40;;;;;;5056093;28;20178;-63
2022/09/03 09:09:43;;;;;;;0.85;0.75;;;23.30;50.40;;;;;;5053989;28;20170;-64
2022/09/03 09:12:18;;;;;;;2.47;0.85;;;23.30;50.40;;;;;;5055262;28;20374;-64
2022/09/03 09:14:44;;;;;;;1.05;0.95;;;23.40;50.50;;;;;;5052846;28;20165;-65
2022/09/03 09:17:31;;;;;;;1.13;0.98;;;23.40;50.50;;;;;;5074038;28;20262;-65
2022/09/03 09:20:16;;;;;;;0.90;0.82;;;23.40;50.50;;;;;;5054237;28;20167;-64
2022/09/03 09:22:46;;;;;;;2.45;1.40;;;23.40;50.50;;;;;;5071185;28;20206;-64
2022/09/03 09:25:19;;;;;;;1.27;0.85;;;23.40;50.50;;;;;;5055469;28;20218;-64
2022/09/03 09:28:12;;;;;;;4.38;1.10;;;23.50;50.60;;;;;;5056046;28;20704;-64
2022/09/03 09:30:38;;;;;;;1.58;0.90;;;23.50;50.60;;;;;;5045522;28;20179;-64
2022/09/03 09:33:03;;;;;;;2.85;1.30;;;23.50;50.60;;;;;;5055969;28;20178;-64
2022/09/03 09:35:29;;;;;;;2.92;1.50;;;23.50;50.70;;;;;;5073993;28;20637;-64
2022/09/03 09:37:57;;;;;;;2.85;1.60;;;23.50;51.00;;;;;;5073351;28;20171;-64
2022/09/03 09:40:31;;;;;;;3.97;1.60;;;23.50;51.00;;;;;;5070267;28;20174;-65
2022/09/03 09:43:11;;;;;;;6.28;1.80;;;23.60;51.20;;;;;;5073820;28;20208;-69
2022/09/03 09:45:39;;;;;;;4.50;1.88;;;23.60;51.40;;;;;;5073398;28;20167;-73
2022/09/03 09:48:09;;;;;;;12.30;2.33;;;23.60;51.50;;;;;;5056233;28;20170;-72
2022/09/03 09:50:35;;;;;;;9.27;2.05;;;23.70;51.60;;;;;;5056134;28;20184;-73
2022/09/03 09:53:13;;;;;;;5.57;1.88;;;23.70;51.70;;;;;;5072966;28;20171;-75
2022/09/03 09:55:55;;;;;;;7.15;2.08;;;23.70;51.70;;;;;;5057118;28;20265;-75
2022/09/03 09:58:26;;;;;;;9.23;2.17;;;23.80;51.80;;;;;;5071203;28;20178;-74
2022/09/03 10:01:13;;;;;;;5.03;1.88;;;23.80;51.80;;;;;;5073664;28;20245;-73
2022/09/03 10:03:55;;;;;;;4.78;2.00;;;23.90;51.90;;;;;;5056024;28;20186;-71
2022/09/03 10:09:15;;;;;;;7.47;1.60;;;23.90;52.10;;;;;;5058553;28;20190;-74
2022/09/03 10:11:57;;;;;;;12.70;2.53;;;23.90;52.20;;;;;;5073590;28;20597;-70
2022/09/03 10:14:32;;;;;;;7.38;1.88;;;24.00;52.20;;;;;;5056891;28;20183;-67
2022/09/03 10:17:13;;;;;;;7.10;2.33;;;24.00;52.30;;;;;;5056168;28;20680;-69
2022/09/03 10:20:26;;;;;;;7.30;2.42;;;24.00;52.30;;;;;;5054762;28;20206;-69
2022/09/03 10:23:23;;;;;;;8.85;1.83;;;24.00;52.30;;;;;;5060216;28;20214;-61
2022/09/03 10:26:06;;;;;;;4.47;2.28;;;24.00;52.80;;;;;;5068333;28;20194;-61
2022/09/03 10:28:39;;;;;;;7.05;2.13;;;24.10;52.10;;;;;;5072708;28;20178;-61
2022/09/03 10:31:25;;;;;;;11.48;2.47;;;24.00;51.90;;;;;;5056707;28;20183;-61
2022/09/03 10:34:17;;;;;;;8.48;2.10;;;24.10;51.90;;;;;;5054699;28;20185;-61
2022/09/03 10:36:49;;;;;;;8.23;1.77;;;24.10;51.90;;;;;;5031935;28;20183;-60
2022/09/03 10:39:39;;;;;;;7.38;1.88;;;24.00;51.80;;;;;;5056083;28;20178;-61
2022/09/03 10:42:19;;;;;;;6.55;2.22;;;24.00;51.80;;;;;;5056958;28;20214;-62
2022/09/03 10:45:09;;;;;;;4.18;2.08;;;24.00;51.70;;;;;;5056022;28;20280;-61
2022/09/03 10:47:54;;;;;;;3.80;1.95;;;24.00;51.90;;;;;;5057246;28;20175;-61
2022/09/03 10:50:40;;;;;;;5.53;1.63;;;24.00;51.60;;;;;;5073026;28;20225;-62
2022/09/03 10:53:24;;;;;;;3.65;1.45;;;24.00;51.50;;;;;;5058025;28;20236;-62
2022/09/03 10:56:08;;;;;;;4.35;1.67;;;24.00;51.50;;;;;;5072391;28;20194;-61
2022/09/03 10:58:59;;;;;;;6.15;1.73;;;24.10;51.50;;;;;;5072991;28;20202;-63
2022/09/03 11:01:43;;;;;;;2.30;1.27;;;24.10;51.40;;;;;;5055129;28;20259;-61
2022/09/03 11:04:43;;;;;;;3.90;1.67;;;24.10;51.40;;;;;;5073010;28;20267;-61
2022/09/03 11:07:12;;;;;;;3.75;1.65;;;24.10;51.30;;;;;;5059281;28;20185;-61
2022/09/03 11:10:15;;;;;;;3.10;1.70;;;24.10;51.20;;;;;;5054416;28;20520;-61
2022/09/03 11:12:55;;;;;;;4.15;1.10;;;24.10;51.20;;;;;;5057358;28;20754;-61
2022/09/03 11:15:30;;;;;;;4.82;1.38;;;24.10;51.10;;;;;;5055316;28;20170;-62
2022/09/03 11:18:16;;;;;;;3.58;1.67;;;24.10;50.90;;;;;;5053951;28;20667;-61
2022/09/03 11:20:41;;;;;;;4.00;1.40;;;24.10;50.90;;;;;;5057656;28;20200;-61
2022/09/03 11:23:07;;;;;;;3.30;1.20;;;24.10;50.90;;;;;;5053860;28;20763;-62
2022/09/03 11:25:40;;;;;;;3.55;1.20;;;24.20;50.90;;;;;;5054484;28;20301;-61
2022/09/03 11:28:24;;;;;;;2.70;1.27;;;24.10;50.80;;;;;;5058499;28;20178;-61
2022/09/03 11:31:12;;;;;;;2.00;1.40;;;24.20;50.80;;;;;;5062579;28;20170;-62
2022/09/03 11:33:40;;;;;;;1.70;1.30;;;24.20;50.70;;;;;;5062566;28;20186;-61
2022/09/03 11:36:06;;;;;;;3.03;1.27;;;24.20;50.70;;;;;;5061347;28;20578;-61
2022/09/03 11:38:31;;;;;;;1.75;1.20;;;24.20;50.60;;;;;;5078355;28;20174;-60
2022/09/03 11:40:58;;;;;;;3.38;1.40;;;24.20;50.60;;;;;;5061376;28;20196;-60
2022/09/03 11:43:23;;;;;;;3.25;1.67;;;24.20;50.50;;;;;;5079236;28;20217;-62
2022/09/03 11:46:00;;;;;;;5.50;1.63;;;24.20;50.40;;;;;;5078313;28;20177;-61
2022/09/03 11:48:44;;;;;;;2.28;1.23;;;24.20;50.40;;;;;;5062949;28;20182;-62
2022/09/03 11:51:23;;;;;;;5.53;1.95;;;24.20;50.30;;;;;;5078586;28;20186;-62
2022/09/03 11:53:54;;;;;;;4.50;1.30;;;24.20;50.30;;;;;;5079290;28;20205;-61
2022/09/03 11:56:19;;;;;;;2.80;1.30;;;24.20;50.30;;;;;;5079214;28;20188;-61
2022/09/03 11:58:45;;;;;;;1.70;1.05;;;24.30;50.30;;;;;;5078135;28;20566;-61
2022/09/03 12:01:16;;;;;;;1.58;1.10;;;24.30;50.20;;;;;;5078949;28;20227;-61
2022/09/03 12:03:52;;;;;;;1.50;1.00;;;24.20;50.20;;;;;;5078899;28;20179;-61
2022/09/03 12:06:42;;;;;;;2.35;1.13;;;24.30;50.20;;;;;;5061016;28;20249;-61
2022/09/03 12:09:45;;;;;;;3.25;1.17;;;24.30;50.10;;;;;;5062687;28;20186;-61
2022/09/03 12:12:26;;;;;;;3.03;1.20;;;24.30;50.00;;;;;;5061147;28;20265;-61
2022/09/03 12:14:58;;;;;;;2.60;0.95;;;24.30;50.00;;;;;;5061278;28;20243;-61
2022/09/03 12:20:42;;;;;;;2.53;1.35;;;24.30;49.90;;;;;;5062931;28;20219;-62
2022/09/03 12:23:10;;;;;;;1.92;1.10;;;24.30;49.90;;;;;;5078771;28;20611;-61
2022/09/03 12:25:44;;;;;;;1.50;1.10;;;24.30;49.90;;;;;;5078608;28;20226;-61
2022/09/03 12:28:11;;;;;;;2.42;1.13;;;24.30;49.80;;;;;;5078209;28;20186;-61
2022/09/03 12:30:37;;;;;;;2.90;1.42;;;24.40;49.80;;;;;;5078650;28;20179;-61
2022/09/03 12:33:06;;;;;;;1.88;1.27;;;24.40;49.70;;;;;;5077699;28;20659;-61
2022/09/03 12:35:31;;;;;;;1.55;1.20;;;24.40;49.70;;;;;;5078877;28;20174;-61
2022/09/03 12:37:57;;;;;;;2.35;1.38;;;24.40;49.60;;;;;;5078675;28;20659;-60
2022/09/03 12:40:27;;;;;;;2.15;1.38;;;24.40;49.50;;;;;;5073847;28;20308;-61
2022/09/03 12:42:53;;;;;;;5.40;1.65;;;24.50;49.60;;;;;;5075253;28;20616;-61
2022/09/03 12:45:23;;;;;;;2.03;1.00;;;24.50;49.50;;;;;;5075385;28;20712;-61
2022/09/03 12:47:48;;;;;;;2.45;1.48;;;24.50;49.40;;;;;;5074918;28;20175;-61
2022/09/03 12:50:16;;;;;;;1.75;1.10;;;24.50;49.30;;;;;;5075390;28;20177;-61
2022/09/03 12:52:55;;;;;;;1.27;1.17;;;24.60;49.20;;;;;;5075334;28;20699;-61
2022/09/03 12:55:42;;;;;;;1.88;1.10;;;24.60;49.10;;;;;;5058248;28;20210;-61
2022/09/03 12:58:18;;;;;;;1.10;1.00;;;24.70;49.10;;;;;;5057340;28;20178;-61
2022/09/03 13:01:07;;;;;;;2.90;1.30;;;24.70;49.00;;;;;;5057369;28;20166;-62
2022/09/03 13:03:47;;;;;;;2.13;1.30;;;24.70;48.80;;;;;;5060093;28;20190;-61
2022/09/03 13:06:14;;;;;;;2.17;1.42;;;24.80;48.80;;;;;;5057203;28;20539;-60
2022/09/03 13:08:57;;;;;;;1.13;1.00;;;24.80;48.80;;;;;;5056651;28;20182;-61
2022/09/03 13:11:23;;;;;;;1.70;1.00;;;24.90;48.70;;;;;;5057721;28;20174;-61
2022/09/03 13:14:07;;;;;;;1.23;1.15;;;24.80;48.60;;;;;;5056998;28;20174;-61
2022/09/03 13:16:47;;;;;;;1.45;1.35;;;24.90;49.20;;;;;;5056210;28;20628;-61
2022/09/03 13:19:32;;;;;;;2.15;1.42;;;25.00;48.40;;;;;;5074997;28;20174;-61